sensor_id;sensor_type;location;lat;lon;timestamp;temperature;humidity
48686;DHT22;34485;51.536;3.816;2023-02-15T00:01:55;2.50;99.90
48686;DHT22;34485;51.536;3.816;2023-02-15T00:04:23;2.30;99.90
48686;DHT22;34485;51.536;3.816;2023-02-15T00:06:50;2.30;99.90
48686;DHT22;34485;51.536;3.816;2023-02-15T00:09:16;2.40;99.90
48686;DHT22;34485;51.536;3.816;2023-02-15T00:11:42;2.30;99.90
48686;DHT22;34485;51.536;3.816;2023-02-15T00:14:21;2.20;99.90
48686;DHT22;34485;51.536;3.816;2023-02-15T00:16:48;2.10;99.90
48686;DHT22;34485;51.536;3.816;2023-02-15T00:19:15;2.20;99.90
48686;DHT22;34485;51.536;3.816;2023-02-15T00:21:42;2.30;99.90
48686;DHT22;34485;51.536;3.816;2023-02-15T00:24:09;2.30;99.90
48686;DHT22;34485;51.536;3.816;2023-02-15T00:26:35;2.30;99.90
48686;DHT22;34485;51.536;3.816;2023-02-15T00:29:03;2.30;99.90
48686;DHT22;34485;51.536;3.816;2023-02-15T00:31:30;2.40;99.90
48686;DHT22;34485;51.536;3.816;2023-02-15T00:34:02;2.50;99.90
48686;DHT22;34485;51.536;3.816;2023-02-15T00:36:28;2.40;99.90
48686;DHT22;34485;51.536;3.816;2023-02-15T00:38:53;2.30;99.90
48686;DHT22;34485;51.536;3.816;2023-02-15T00:41:19;2.20;99.90
48686;DHT22;34485;51.536;3.816;2023-02-15T00:43:44;2.00;99.90
48686;DHT22;34485;51.536;3.816;2023-02-15T00:46:10;1.80;99.90
48686;DHT22;34485;51.536;3.816;2023-02-15T00:48:36;1.60;99.90
48686;DHT22;34485;51.536;3.816;2023-02-15T00:51:01;1.50;99.90
48686;DHT22;34485;51.536;3.816;2023-02-15T00:53:28;1.40;99.90
48686;DHT22;34485;51.536;3.816;2023-02-15T00:55:54;1.40;99.90
48686;DHT22;34485;51.536;3.816;2023-02-15T00:58:19;1.50;99.90
48686;DHT22;34485;51.536;3.816;2023-02-15T01:00:46;1.40;99.90
48686;DHT22;34485;51.536;3.816;2023-02-15T01:03:13;1.40;99.90
48686;DHT22;34485;51.536;3.816;2023-02-15T01:05:39;1.40;99.90
48686;DHT22;34485;51.536;3.816;2023-02-15T01:08:05;1.30;99.90
48686;DHT22;34485;51.536;3.816;2023-02-15T01:10:31;1.20;99.90
48686;DHT22;34485;51.536;3.816;2023-02-15T01:12:58;1.20;99.90
48686;DHT22;34485;51.536;3.816;2023-02-15T01:15:24;1.30;99.90
48686;DHT22;34485;51.536;3.816;2023-02-15T01:20:23;1.20;99.90
48686;DHT22;34485;51.536;3.816;2023-02-15T01:22:50;1.10;99.90
48686;DHT22;34485;51.536;3.816;2023-02-15T01:25:17;1.00;99.90
48686;DHT22;34485;51.536;3.816;2023-02-15T01:27:42;1.00;99.90
48686;DHT22;34485;51.536;3.816;2023-02-15T01:30:09;1.00;99.90
48686;DHT22;34485;51.536;3.816;2023-02-15T01:32:35;0.90;99.90
48686;DHT22;34485;51.536;3.816;2023-02-15T01:35:00;1.00;99.90
48686;DHT22;34485;51.536;3.816;2023-02-15T01:37:26;1.00;99.90
48686;DHT22;34485;51.536;3.816;2023-02-15T01:39:52;0.90;99.90
48686;DHT22;34485;51.536;3.816;2023-02-15T01:42:22;0.90;99.90
48686;DHT22;34485;51.536;3.816;2023-02-15T01:44:55;0.90;99.90
48686;DHT22;34485;51.536;3.816;2023-02-15T01:50:29;0.90;99.90
48686;DHT22;34485;51.536;3.816;2023-02-15T01:53:03;0.80;99.90
48686;DHT22;34485;51.536;3.816;2023-02-15T01:55:34;0.70;99.90
48686;DHT22;34485;51.536;3.816;2023-02-15T01:58:01;0.60;99.90
48686;DHT22;34485;51.536;3.816;2023-02-15T02:00:26;0.60;99.90
48686;DHT22;34485;51.536;3.816;2023-02-15T02:02:54;0.60;99.90
48686;DHT22;34485;51.536;3.816;2023-02-15T02:05:21;0.60;99.90
48686;DHT22;34485;51.536;3.816;2023-02-15T02:07:48;0.60;99.90
48686;DHT22;34485;51.536;3.816;2023-02-15T02:10:18;0.60;99.90
48686;DHT22;34485;51.536;3.816;2023-02-15T02:12:45;0.60;99.90
48686;DHT22;34485;51.536;3.816;2023-02-15T02:15:12;0.60;99.90
48686;DHT22;34485;51.536;3.816;2023-02-15T02:18:03;0.70;99.90
48686;DHT22;34485;51.536;3.816;2023-02-15T02:23:56;0.60;99.90
48686;DHT22;34485;51.536;3.816;2023-02-15T02:29:47;0.70;99.90
48686;DHT22;34485;51.536;3.816;2023-02-15T02:35:03;0.70;99.90
48686;DHT22;34485;51.536;3.816;2023-02-15T02:37:55;0.70;99.90
48686;DHT22;34485;51.536;3.816;2023-02-15T02:40:40;0.70;99.90
48686;DHT22;34485;51.536;3.816;2023-02-15T02:43:21;0.60;99.90
48686;DHT22;34485;51.536;3.816;2023-02-15T02:48:25;0.70;99.90
48686;DHT22;34485;51.536;3.816;2023-02-15T02:50:53;0.60;99.90
48686;DHT22;34485;51.536;3.816;2023-02-15T02:53:18;0.60;99.90
48686;DHT22;34485;51.536;3.816;2023-02-15T02:55:52;0.60;99.90
48686;DHT22;34485;51.536;3.816;2023-02-15T02:58:32;0.60;99.90
48686;DHT22;34485;51.536;3.816;2023-02-15T03:01:09;0.60;99.90
48686;DHT22;34485;51.536;3.816;2023-02-15T03:06:13;0.60;99.90
48686;DHT22;34485;51.536;3.816;2023-02-15T03:08:51;0.50;99.90
48686;DHT22;34485;51.536;3.816;2023-02-15T03:11:19;0.50;99.90
48686;DHT22;34485;51.536;3.816;2023-02-15T03:13:46;0.60;99.90
48686;DHT22;34485;51.536;3.816;2023-02-15T03:16:13;0.50;99.90
48686;DHT22;34485;51.536;3.816;2023-02-15T03:19:00;0.50;99.90
48686;DHT22;34485;51.536;3.816;2023-02-15T03:24:13;0.50;99.90
48686;DHT22;34485;51.536;3.816;2023-02-15T03:26:42;0.50;99.90
48686;DHT22;34485;51.536;3.816;2023-02-15T03:29:11;0.50;99.90
48686;DHT22;34485;51.536;3.816;2023-02-15T03:31:40;0.50;99.90
48686;DHT22;34485;51.536;3.816;2023-02-15T03:34:11;0.50;99.90
48686;DHT22;34485;51.536;3.816;2023-02-15T03:39:11;0.40;99.90
48686;DHT22;34485;51.536;3.816;2023-02-15T03:41:44;0.30;99.90
48686;DHT22;34485;51.536;3.816;2023-02-15T03:44:30;0.40;99.90
48686;DHT22;34485;51.536;3.816;2023-02-15T03:47:06;0.50;99.90
48686;DHT22;34485;51.536;3.816;2023-02-15T03:50:00;0.50;99.90
48686;DHT22;34485;51.536;3.816;2023-02-15T03:52:28;0.50;99.90
48686;DHT22;34485;51.536;3.816;2023-02-15T03:54:55;0.60;99.90
48686;DHT22;34485;51.536;3.816;2023-02-15T03:57:27;0.60;99.90
48686;DHT22;34485;51.536;3.816;2023-02-15T04:05:33;0.80;99.90
48686;DHT22;34485;51.536;3.816;2023-02-15T04:07:59;0.70;99.90
48686;DHT22;34485;51.536;3.816;2023-02-15T04:10:24;0.70;99.90
48686;DHT22;34485;51.536;3.816;2023-02-15T04:13:08;0.60;99.90
48686;DHT22;34485;51.536;3.816;2023-02-15T04:15:34;0.60;99.90
48686;DHT22;34485;51.536;3.816;2023-02-15T04:18:18;0.50;99.90
48686;DHT22;34485;51.536;3.816;2023-02-15T04:20:45;0.40;99.90
48686;DHT22;34485;51.536;3.816;2023-02-15T04:23:29;0.40;99.90
48686;DHT22;34485;51.536;3.816;2023-02-15T04:26:13;0.40;99.90
48686;DHT22;34485;51.536;3.816;2023-02-15T04:28:39;0.40;99.90
48686;DHT22;34485;51.536;3.816;2023-02-15T04:31:05;0.40;99.90
48686;DHT22;34485;51.536;3.816;2023-02-15T04:33:30;0.40;99.90
48686;DHT22;34485;51.536;3.816;2023-02-15T04:35:56;0.40;99.90
48686;DHT22;34485;51.536;3.816;2023-02-15T04:38:22;0.40;99.90
48686;DHT22;34485;51.536;3.816;2023-02-15T04:40:51;0.30;99.90
48686;DHT22;34485;51.536;3.816;2023-02-15T04:43:20;0.20;99.90
48686;DHT22;34485;51.536;3.816;2023-02-15T04:45:50;0.20;99.90
48686;DHT22;34485;51.536;3.816;2023-02-15T04:48:16;0.10;99.90
48686;DHT22;34485;51.536;3.816;2023-02-15T04:50:43;0.10;99.90
48686;DHT22;34485;51.536;3.816;2023-02-15T04:53:09;0.00;99.90
48686;DHT22;34485;51.536;3.816;2023-02-15T04:55:34;-0.10;99.90
48686;DHT22;34485;51.536;3.816;2023-02-15T04:58:00;0.00;99.90
48686;DHT22;34485;51.536;3.816;2023-02-15T05:00:26;0.00;99.90
48686;DHT22;34485;51.536;3.816;2023-02-15T05:02:52;0.10;99.90
48686;DHT22;34485;51.536;3.816;2023-02-15T05:05:18;0.10;99.90
48686;DHT22;34485;51.536;3.816;2023-02-15T05:07:44;0.20;99.90
48686;DHT22;34485;51.536;3.816;2023-02-15T05:10:10;0.20;99.90
48686;DHT22;34485;51.536;3.816;2023-02-15T05:12:35;0.20;99.90
48686;DHT22;34485;51.536;3.816;2023-02-15T05:15:01;0.20;99.90
48686;DHT22;34485;51.536;3.816;2023-02-15T05:17:27;0.20;99.90
48686;DHT22;34485;51.536;3.816;2023-02-15T05:19:52;0.30;99.90
48686;DHT22;34485;51.536;3.816;2023-02-15T05:22:18;0.20;99.90
48686;DHT22;34485;51.536;3.816;2023-02-15T05:24:43;0.20;99.90
48686;DHT22;34485;51.536;3.816;2023-02-15T05:27:28;0.10;99.90
48686;DHT22;34485;51.536;3.816;2023-02-15T05:30:12;0.10;99.90
48686;DHT22;34485;51.536;3.816;2023-02-15T05:32:38;0.10;99.90
48686;DHT22;34485;51.536;3.816;2023-02-15T05:35:05;0.10;99.90
48686;DHT22;34485;51.536;3.816;2023-02-15T05:37:31;0.20;99.90
48686;DHT22;34485;51.536;3.816;2023-02-15T05:39:57;0.40;99.90
48686;DHT22;34485;51.536;3.816;2023-02-15T05:42:22;0.60;99.90
48686;DHT22;34485;51.536;3.816;2023-02-15T05:44:48;0.70;99.90
48686;DHT22;34485;51.536;3.816;2023-02-15T05:47:13;0.90;99.90
48686;DHT22;34485;51.536;3.816;2023-02-15T05:49:39;0.90;99.90
48686;DHT22;34485;51.536;3.816;2023-02-15T05:52:05;1.00;99.90
48686;DHT22;34485;51.536;3.816;2023-02-15T05:54:30;1.00;99.90
48686;DHT22;34485;51.536;3.816;2023-02-15T05:56:56;1.00;99.90
48686;DHT22;34485;51.536;3.816;2023-02-15T05:59:22;1.00;99.90
48686;DHT22;34485;51.536;3.816;2023-02-15T06:01:47;1.00;99.90
48686;DHT22;34485;51.536;3.816;2023-02-15T06:04:13;1.00;99.90
48686;DHT22;34485;51.536;3.816;2023-02-15T06:06:39;0.90;99.90
48686;DHT22;34485;51.536;3.816;2023-02-15T06:09:04;1.00;99.90
48686;DHT22;34485;51.536;3.816;2023-02-15T06:11:30;1.00;99.90
48686;DHT22;34485;51.536;3.816;2023-02-15T06:13:55;1.10;99.90
48686;DHT22;34485;51.536;3.816;2023-02-15T06:16:21;1.20;99.90
48686;DHT22;34485;51.536;3.816;2023-02-15T06:18:47;1.20;99.90
48686;DHT22;34485;51.536;3.816;2023-02-15T06:21:13;1.30;99.90
48686;DHT22;34485;51.536;3.816;2023-02-15T06:23:39;1.40;99.90
48686;DHT22;34485;51.536;3.816;2023-02-15T06:26:04;1.60;99.90
48686;DHT22;34485;51.536;3.816;2023-02-15T06:28:30;1.80;99.90
48686;DHT22;34485;51.536;3.816;2023-02-15T06:30:56;2.00;99.90
48686;DHT22;34485;51.536;3.816;2023-02-15T06:33:22;2.10;99.90
48686;DHT22;34485;51.536;3.816;2023-02-15T06:35:48;2.10;99.90
48686;DHT22;34485;51.536;3.816;2023-02-15T06:38:13;2.10;99.90
48686;DHT22;34485;51.536;3.816;2023-02-15T06:40:39;2.00;99.90
48686;DHT22;34485;51.536;3.816;2023-02-15T06:43:04;2.20;99.90
48686;DHT22;34485;51.536;3.816;2023-02-15T06:45:30;2.30;99.90
48686;DHT22;34485;51.536;3.816;2023-02-15T06:47:56;2.30;99.90
48686;DHT22;34485;51.536;3.816;2023-02-15T06:50:21;2.30;99.90
48686;DHT22;34485;51.536;3.816;2023-02-15T06:52:47;2.30;99.90
48686;DHT22;34485;51.536;3.816;2023-02-15T06:55:12;2.40;99.90
48686;DHT22;34485;51.536;3.816;2023-02-15T06:57:38;2.40;99.90
48686;DHT22;34485;51.536;3.816;2023-02-15T07:00:04;2.60;99.90
48686;DHT22;34485;51.536;3.816;2023-02-15T07:02:30;2.60;99.90
48686;DHT22;34485;51.536;3.816;2023-02-15T07:05:16;2.60;99.90
48686;DHT22;34485;51.536;3.816;2023-02-15T07:07:42;2.70;99.90
48686;DHT22;34485;51.536;3.816;2023-02-15T07:10:07;2.80;99.90
48686;DHT22;34485;51.536;3.816;2023-02-15T07:12:33;2.80;99.90
48686;DHT22;34485;51.536;3.816;2023-02-15T07:15:16;2.80;99.90
48686;DHT22;34485;51.536;3.816;2023-02-15T07:17:42;2.90;99.90
48686;DHT22;34485;51.536;3.816;2023-02-15T07:20:14;2.90;99.90
48686;DHT22;34485;51.536;3.816;2023-02-15T07:22:40;3.00;99.90
48686;DHT22;34485;51.536;3.816;2023-02-15T07:25:08;3.00;99.90
48686;DHT22;34485;51.536;3.816;2023-02-15T07:27:34;2.90;99.90
48686;DHT22;34485;51.536;3.816;2023-02-15T07:30:00;3.00;99.90
48686;DHT22;34485;51.536;3.816;2023-02-15T07:32:30;3.00;99.90
48686;DHT22;34485;51.536;3.816;2023-02-15T07:34:56;3.00;99.90
48686;DHT22;34485;51.536;3.816;2023-02-15T07:37:23;3.10;99.90
48686;DHT22;34485;51.536;3.816;2023-02-15T07:39:48;3.10;99.90
48686;DHT22;34485;51.536;3.816;2023-02-15T07:42:14;3.20;99.90
48686;DHT22;34485;51.536;3.816;2023-02-15T07:44:40;3.20;99.90
48686;DHT22;34485;51.536;3.816;2023-02-15T07:47:05;3.30;99.90
48686;DHT22;34485;51.536;3.816;2023-02-15T07:49:31;3.30;99.90
48686;DHT22;34485;51.536;3.816;2023-02-15T07:51:57;3.30;99.90
48686;DHT22;34485;51.536;3.816;2023-02-15T07:54:22;3.30;99.90
48686;DHT22;34485;51.536;3.816;2023-02-15T07:56:48;3.40;99.90
48686;DHT22;34485;51.536;3.816;2023-02-15T07:59:14;3.50;99.90
48686;DHT22;34485;51.536;3.816;2023-02-15T08:01:39;3.60;99.90
48686;DHT22;34485;51.536;3.816;2023-02-15T08:04:06;3.70;99.90
48686;DHT22;34485;51.536;3.816;2023-02-15T08:06:35;3.80;99.90
48686;DHT22;34485;51.536;3.816;2023-02-15T08:09:03;4.20;99.90
48686;DHT22;34485;51.536;3.816;2023-02-15T08:11:34;4.60;99.90
48686;DHT22;34485;51.536;3.816;2023-02-15T08:14:10;5.10;99.90
48686;DHT22;34485;51.536;3.816;2023-02-15T08:19:09;5.50;99.90
48686;DHT22;34485;51.536;3.816;2023-02-15T08:24:02;6.20;99.90
48686;DHT22;34485;51.536;3.816;2023-02-15T08:26:30;6.60;99.90
48686;DHT22;34485;51.536;3.816;2023-02-15T08:33:50;5.40;99.90
48686;DHT22;34485;51.536;3.816;2023-02-15T08:36:19;7.60;99.90
48686;DHT22;34485;51.536;3.816;2023-02-15T08:38:45;7.20;99.90
48686;DHT22;34485;51.536;3.816;2023-02-15T08:41:21;7.00;99.90
48686;DHT22;34485;51.536;3.816;2023-02-15T08:43:49;7.50;99.90
48686;DHT22;34485;51.536;3.816;2023-02-15T08:46:16;7.00;99.90
48686;DHT22;34485;51.536;3.816;2023-02-15T08:48:43;6.90;99.90
48686;DHT22;34485;51.536;3.816;2023-02-15T08:51:11;7.00;99.90
48686;DHT22;34485;51.536;3.816;2023-02-15T08:53:39;7.20;99.90
48686;DHT22;34485;51.536;3.816;2023-02-15T08:56:06;7.20;99.90
48686;DHT22;34485;51.536;3.816;2023-02-15T08:58:31;7.30;99.90
48686;DHT22;34485;51.536;3.816;2023-02-15T09:00:58;7.60;99.90
48686;DHT22;34485;51.536;3.816;2023-02-15T09:03:23;8.20;99.90
48686;DHT22;34485;51.536;3.816;2023-02-15T09:05:49;8.50;99.90
48686;DHT22;34485;51.536;3.816;2023-02-15T09:08:15;8.80;99.90
48686;DHT22;34485;51.536;3.816;2023-02-15T09:10:41;9.20;99.90
48686;DHT22;34485;51.536;3.816;2023-02-15T09:13:06;9.40;99.90
48686;DHT22;34485;51.536;3.816;2023-02-15T09:15:32;9.60;99.90
48686;DHT22;34485;51.536;3.816;2023-02-15T09:17:58;10.00;99.90
48686;DHT22;34485;51.536;3.816;2023-02-15T09:20:31;10.20;99.90
48686;DHT22;34485;51.536;3.816;2023-02-15T09:22:57;9.80;99.90
48686;DHT22;34485;51.536;3.816;2023-02-15T09:25:23;9.50;99.90
48686;DHT22;34485;51.536;3.816;2023-02-15T09:27:48;9.30;99.90
48686;DHT22;34485;51.536;3.816;2023-02-15T09:30:14;9.40;99.90
48686;DHT22;34485;51.536;3.816;2023-02-15T09:32:40;9.20;99.90
48686;DHT22;34485;51.536;3.816;2023-02-15T09:35:06;8.90;99.90
48686;DHT22;34485;51.536;3.816;2023-02-15T09:37:31;8.90;99.90
48686;DHT22;34485;51.536;3.816;2023-02-15T09:39:57;8.70;99.90
48686;DHT22;34485;51.536;3.816;2023-02-15T09:48:12;8.90;99.90
48686;DHT22;34485;51.536;3.816;2023-02-15T09:50:49;8.90;99.90
48686;DHT22;34485;51.536;3.816;2023-02-15T09:56:30;9.10;99.90
48686;DHT22;34485;51.536;3.816;2023-02-15T09:58:59;9.00;99.90
48686;DHT22;34485;51.536;3.816;2023-02-15T10:04:27;9.60;99.90
48686;DHT22;34485;51.536;3.816;2023-02-15T10:26:12;10.40;99.90
48686;DHT22;34485;51.536;3.816;2023-02-15T10:31:25;10.40;99.90
48686;DHT22;34485;51.536;3.816;2023-02-15T10:34:17;10.60;99.90
48686;DHT22;34485;51.536;3.816;2023-02-15T10:45:01;11.20;99.90
48686;DHT22;34485;51.536;3.816;2023-02-15T11:01:27;10.90;99.90
48686;DHT22;34485;51.536;3.816;2023-02-15T11:06:52;11.10;99.90
48686;DHT22;34485;51.536;3.816;2023-02-15T11:09:21;11.20;99.90
48686;DHT22;34485;51.536;3.816;2023-02-15T11:11:52;11.20;99.90
48686;DHT22;34485;51.536;3.816;2023-02-15T11:14:49;11.50;99.90
48686;DHT22;34485;51.536;3.816;2023-02-15T11:17:21;11.80;99.90
48686;DHT22;34485;51.536;3.816;2023-02-15T11:19:58;12.00;99.90
48686;DHT22;34485;51.536;3.816;2023-02-15T11:22:29;12.20;99.90
48686;DHT22;34485;51.536;3.816;2023-02-15T11:24:58;12.20;99.90
48686;DHT22;34485;51.536;3.816;2023-02-15T11:27:31;12.20;99.90
48686;DHT22;34485;51.536;3.816;2023-02-15T11:30:13;12.40;99.90
48686;DHT22;34485;51.536;3.816;2023-02-15T11:32:40;12.40;99.90
48686;DHT22;34485;51.536;3.816;2023-02-15T11:43:29;12.00;99.90
48686;DHT22;34485;51.536;3.816;2023-02-15T11:45:52;11.80;99.90
48686;DHT22;34485;51.536;3.816;2023-02-15T11:48:17;11.80;99.90
48686;DHT22;34485;51.536;3.816;2023-02-15T11:50:44;11.60;99.90
48686;DHT22;34485;51.536;3.816;2023-02-15T11:53:14;11.60;99.90
48686;DHT22;34485;51.536;3.816;2023-02-15T11:55:45;11.60;99.90
48686;DHT22;34485;51.536;3.816;2023-02-15T11:58:33;11.50;99.90
48686;DHT22;34485;51.536;3.816;2023-02-15T12:01:14;11.40;99.90
48686;DHT22;34485;51.536;3.816;2023-02-15T12:03:52;11.30;99.90
48686;DHT22;34485;51.536;3.816;2023-02-15T12:06:41;11.30;99.90
48686;DHT22;34485;51.536;3.816;2023-02-15T12:11:44;11.40;99.90
48686;DHT22;34485;51.536;3.816;2023-02-15T12:17:41;11.60;99.90
48686;DHT22;34485;51.536;3.816;2023-02-15T12:22:39;11.80;99.90
48686;DHT22;34485;51.536;3.816;2023-02-15T12:25:36;11.90;99.90
48686;DHT22;34485;51.536;3.816;2023-02-15T12:28:05;11.90;99.90
48686;DHT22;34485;51.536;3.816;2023-02-15T12:30:42;11.90;99.90
48686;DHT22;34485;51.536;3.816;2023-02-15T12:33:31;11.90;99.90
48686;DHT22;34485;51.536;3.816;2023-02-15T12:36:19;11.70;99.90
48686;DHT22;34485;51.536;3.816;2023-02-15T12:41:32;11.60;99.90
48686;DHT22;34485;51.536;3.816;2023-02-15T12:44:18;11.60;99.90
48686;DHT22;34485;51.536;3.816;2023-02-15T12:46:57;11.60;99.90
48686;DHT22;34485;51.536;3.816;2023-02-15T12:49:24;11.70;99.90
48686;DHT22;34485;51.536;3.816;2023-02-15T12:51:58;11.70;99.90
48686;DHT22;34485;51.536;3.816;2023-02-15T12:56:50;11.90;99.90
48686;DHT22;34485;51.536;3.816;2023-02-15T12:59:17;12.00;99.90
48686;DHT22;34485;51.536;3.816;2023-02-15T13:04:26;12.10;99.90
48686;DHT22;34485;51.536;3.816;2023-02-15T13:06:56;12.10;99.90
48686;DHT22;34485;51.536;3.816;2023-02-15T13:12:30;12.00;99.90
48686;DHT22;34485;51.536;3.816;2023-02-15T13:14:58;11.90;99.90
48686;DHT22;34485;51.536;3.816;2023-02-15T13:17:32;11.90;99.90
48686;DHT22;34485;51.536;3.816;2023-02-15T13:20:13;11.90;99.90
48686;DHT22;34485;51.536;3.816;2023-02-15T13:22:44;11.80;99.90
48686;DHT22;34485;51.536;3.816;2023-02-15T13:27:44;11.80;99.90
48686;DHT22;34485;51.536;3.816;2023-02-15T13:30:42;11.80;99.90
48686;DHT22;34485;51.536;3.816;2023-02-15T13:33:30;11.80;99.90
48686;DHT22;34485;51.536;3.816;2023-02-15T13:36:19;11.80;99.90
48686;DHT22;34485;51.536;3.816;2023-02-15T13:39:03;11.80;99.90
48686;DHT22;34485;51.536;3.816;2023-02-15T13:41:36;11.80;99.90
48686;DHT22;34485;51.536;3.816;2023-02-15T13:45:03;11.80;99.90
48686;DHT22;34485;51.536;3.816;2023-02-15T13:52:47;11.70;99.90
48686;DHT22;34485;51.536;3.816;2023-02-15T13:55:34;11.70;99.90
48686;DHT22;34485;51.536;3.816;2023-02-15T14:01:09;11.60;99.90
48686;DHT22;34485;51.536;3.816;2023-02-15T14:04:13;11.70;99.90
48686;DHT22;34485;51.536;3.816;2023-02-15T14:06:52;11.70;99.90
48686;DHT22;34485;51.536;3.816;2023-02-15T14:23:56;11.80;99.90
48686;DHT22;34485;51.536;3.816;2023-02-15T14:26:47;11.90;99.90
48686;DHT22;34485;51.536;3.816;2023-02-15T14:29:41;11.80;99.90
48686;DHT22;34485;51.536;3.816;2023-02-15T14:32:16;11.80;99.90
48686;DHT22;34485;51.536;3.816;2023-02-15T14:34:52;11.80;99.90
48686;DHT22;34485;51.536;3.816;2023-02-15T14:48:42;12.10;99.90
48686;DHT22;34485;51.536;3.816;2023-02-15T14:51:09;12.10;99.90
48686;DHT22;34485;51.536;3.816;2023-02-15T14:53:39;12.10;99.90
48686;DHT22;34485;51.536;3.816;2023-02-15T14:56:15;12.10;99.90
48686;DHT22;34485;51.536;3.816;2023-02-15T15:01:31;12.10;99.90
48686;DHT22;34485;51.536;3.816;2023-02-15T15:04:05;12.10;99.90
48686;DHT22;34485;51.536;3.816;2023-02-15T15:06:36;12.00;99.90
48686;DHT22;34485;51.536;3.816;2023-02-15T15:09:41;12.00;99.90
48686;DHT22;34485;51.536;3.816;2023-02-15T15:14:49;11.80;99.90
48686;DHT22;34485;51.536;3.816;2023-02-15T15:20:37;11.70;99.90
48686;DHT22;34485;51.536;3.816;2023-02-15T15:29:40;11.40;99.90
48686;DHT22;34485;51.536;3.816;2023-02-15T15:32:08;11.30;99.90
48686;DHT22;34485;51.536;3.816;2023-02-15T15:40:37;11.20;99.90
48686;DHT22;34485;51.536;3.816;2023-02-15T15:43:39;11.20;99.90
48686;DHT22;34485;51.536;3.816;2023-02-15T15:46:26;11.10;99.90
48686;DHT22;34485;51.536;3.816;2023-02-15T15:49:06;11.10;99.90
48686;DHT22;34485;51.536;3.816;2023-02-15T15:51:34;11.10;99.90
48686;DHT22;34485;51.536;3.816;2023-02-15T15:54:04;11.10;99.90
48686;DHT22;34485;51.536;3.816;2023-02-15T15:56:33;11.00;99.90
48686;DHT22;34485;51.536;3.816;2023-02-15T15:59:06;11.00;99.90
48686;DHT22;34485;51.536;3.816;2023-02-15T16:01:43;11.00;99.90
48686;DHT22;34485;51.536;3.816;2023-02-15T16:04:14;11.00;99.90
48686;DHT22;34485;51.536;3.816;2023-02-15T16:06:47;10.90;99.90
48686;DHT22;34485;51.536;3.816;2023-02-15T16:09:17;10.90;99.90
48686;DHT22;34485;51.536;3.816;2023-02-15T16:11:47;10.90;99.90
48686;DHT22;34485;51.536;3.816;2023-02-15T16:14:22;10.80;99.90
48686;DHT22;34485;51.536;3.816;2023-02-15T16:16:52;10.80;99.90
48686;DHT22;34485;51.536;3.816;2023-02-15T16:19:22;10.70;99.90
48686;DHT22;34485;51.536;3.816;2023-02-15T16:21:49;10.60;99.90
48686;DHT22;34485;51.536;3.816;2023-02-15T16:29:46;10.50;99.90
48686;DHT22;34485;51.536;3.816;2023-02-15T16:32:21;10.40;99.90
48686;DHT22;34485;51.536;3.816;2023-02-15T16:34:57;10.30;99.90
48686;DHT22;34485;51.536;3.816;2023-02-15T16:40:52;10.20;99.90
48686;DHT22;34485;51.536;3.816;2023-02-15T16:43:26;10.20;99.90
48686;DHT22;34485;51.536;3.816;2023-02-15T16:46:03;10.10;99.90
48686;DHT22;34485;51.536;3.816;2023-02-15T16:48:29;10.10;99.90
48686;DHT22;34485;51.536;3.816;2023-02-15T16:50:56;10.10;99.90
48686;DHT22;34485;51.536;3.816;2023-02-15T16:53:29;10.10;99.90
48686;DHT22;34485;51.536;3.816;2023-02-15T16:55:59;10.10;99.90
48686;DHT22;34485;51.536;3.816;2023-02-15T16:58:36;10.00;99.90
48686;DHT22;34485;51.536;3.816;2023-02-15T17:01:02;10.00;99.90
48686;DHT22;34485;51.536;3.816;2023-02-15T17:03:31;10.00;99.90
48686;DHT22;34485;51.536;3.816;2023-02-15T17:05:59;9.90;99.90
48686;DHT22;34485;51.536;3.816;2023-02-15T17:08:42;9.80;99.90
48686;DHT22;34485;51.536;3.816;2023-02-15T17:11:19;9.80;99.90
48686;DHT22;34485;51.536;3.816;2023-02-15T17:14:13;9.80;99.90
48686;DHT22;34485;51.536;3.816;2023-02-15T17:16:52;9.70;99.90
48686;DHT22;34485;51.536;3.816;2023-02-15T17:19:22;9.60;99.90
48686;DHT22;34485;51.536;3.816;2023-02-15T17:21:56;9.50;99.90
48686;DHT22;34485;51.536;3.816;2023-02-15T17:24:40;9.50;99.90
48686;DHT22;34485;51.536;3.816;2023-02-15T17:27:19;9.40;99.90
48686;DHT22;34485;51.536;3.816;2023-02-15T17:29:57;9.30;99.90
48686;DHT22;34485;51.536;3.816;2023-02-15T17:32:28;9.20;99.90
48686;DHT22;34485;51.536;3.816;2023-02-15T17:35:16;9.10;99.90
48686;DHT22;34485;51.536;3.816;2023-02-15T17:37:47;8.90;99.90
48686;DHT22;34485;51.536;3.816;2023-02-15T17:42:47;8.60;99.90
48686;DHT22;34485;51.536;3.816;2023-02-15T17:45:14;8.50;99.90
48686;DHT22;34485;51.536;3.816;2023-02-15T17:47:40;8.40;99.90
48686;DHT22;34485;51.536;3.816;2023-02-15T17:50:08;8.30;99.90
48686;DHT22;34485;51.536;3.816;2023-02-15T17:52:40;8.30;99.90
48686;DHT22;34485;51.536;3.816;2023-02-15T17:55:14;8.20;99.90
48686;DHT22;34485;51.536;3.816;2023-02-15T17:57:59;8.10;99.90
48686;DHT22;34485;51.536;3.816;2023-02-15T18:00:24;8.00;99.90
48686;DHT22;34485;51.536;3.816;2023-02-15T18:03:10;8.00;99.90
48686;DHT22;34485;51.536;3.816;2023-02-15T18:05:54;7.90;99.90
48686;DHT22;34485;51.536;3.816;2023-02-15T18:08:39;7.90;99.90
48686;DHT22;34485;51.536;3.816;2023-02-15T18:11:23;7.90;99.90
48686;DHT22;34485;51.536;3.816;2023-02-15T18:14:09;7.90;99.90
48686;DHT22;34485;51.536;3.816;2023-02-15T18:16:40;7.90;99.90
48686;DHT22;34485;51.536;3.816;2023-02-15T18:19:22;7.90;99.90
48686;DHT22;34485;51.536;3.816;2023-02-15T18:21:48;7.90;99.90
48686;DHT22;34485;51.536;3.816;2023-02-15T18:24:24;7.90;99.90
48686;DHT22;34485;51.536;3.816;2023-02-15T18:26:52;7.90;99.90
48686;DHT22;34485;51.536;3.816;2023-02-15T18:29:18;8.00;99.90
48686;DHT22;34485;51.536;3.816;2023-02-15T18:31:50;7.90;99.90
48686;DHT22;34485;51.536;3.816;2023-02-15T18:34:32;7.90;99.90
48686;DHT22;34485;51.536;3.816;2023-02-15T18:37:00;7.90;99.90
48686;DHT22;34485;51.536;3.816;2023-02-15T18:41:56;7.70;99.90
48686;DHT22;34485;51.536;3.816;2023-02-15T18:44:22;7.60;99.90
48686;DHT22;34485;51.536;3.816;2023-02-15T18:46:48;7.50;99.90
48686;DHT22;34485;51.536;3.816;2023-02-15T18:49:13;7.40;99.90
48686;DHT22;34485;51.536;3.816;2023-02-15T18:51:39;7.40;99.90
48686;DHT22;34485;51.536;3.816;2023-02-15T18:54:20;7.40;99.90
48686;DHT22;34485;51.536;3.816;2023-02-15T18:56:54;7.30;99.90
48686;DHT22;34485;51.536;3.816;2023-02-15T18:59:22;7.30;99.90
48686;DHT22;34485;51.536;3.816;2023-02-15T19:01:48;7.30;99.90
48686;DHT22;34485;51.536;3.816;2023-02-15T19:04:13;7.20;99.90
48686;DHT22;34485;51.536;3.816;2023-02-15T19:06:43;7.20;99.90
48686;DHT22;34485;51.536;3.816;2023-02-15T19:09:18;7.20;99.90
48686;DHT22;34485;51.536;3.816;2023-02-15T19:11:51;7.20;99.90
48686;DHT22;34485;51.536;3.816;2023-02-15T19:14:32;7.20;99.90
48686;DHT22;34485;51.536;3.816;2023-02-15T19:16:59;7.20;99.90
48686;DHT22;34485;51.536;3.816;2023-02-15T19:19:26;7.20;99.90
48686;DHT22;34485;51.536;3.816;2023-02-15T19:21:52;7.20;99.90
48686;DHT22;34485;51.536;3.816;2023-02-15T19:24:21;7.20;99.90
48686;DHT22;34485;51.536;3.816;2023-02-15T19:26:48;7.20;99.90